Aurora, OR

2:38 AM PDT on October 26, 2014 (GMT -0700)
Mineral Springs View | Change Station
CLOSE
Current Station
Personal Weather Station
Location: Hubbard, OR
Elevation: 177 ft
Nearby Weather Stations

Elev 177 ft 45.19 °N, 122.81 °W | Updated 6 minutes ago

Overcast
Overcast
49.6 °F
Feels Like 48 °F
N
5.3
Wind Variable Wind from WSW

Today
High -- | Low -- °F
--% Chance of Precip.
Yesterday
High -- | Low -- °F
Precip. -- in
7:42 AM 6:07 PM
Waxing Crescent, 7% visible
Pressure 29.98 in
Visibility 10.0 miles
Clouds Few 3900 ft
Mostly Cloudy 5500 ft
Overcast 7000 ft
Windchill 48 °F
Dew Point 49 °F
Humidity 99%
Rainfall 0.00 in
Snow Depth Not available.
UV 0 out of 12
Pollen .40 out of 12
Air Quality Not available.
Flu Activity Sporadic
METAR KUAO 260853Z AUTO 20009KT 10SM FEW039 BKN055 OVC070 11/08 A2998 RMK AO2 SLP151 60001 T01060078 53022 $

More Conditions Fewer Conditions

Pressure 29.98 in
Visibility 10.0 miles
Clouds Few 3900 ft
Mostly Cloudy 5500 ft
Overcast 7000 ft
Windchill 48 °F
Dew Point 49 °F
Humidity 99%
Rainfall 0.00 in
Snow Depth Not available.
UV 0 out of 12
Pollen .40 out of 12
Air Quality Not available.
Flu Activity Sporadic
METAR KUAO 260853Z AUTO 20009KT 10SM FEW039 BKN055 OVC070 11/08 A2998 RMK AO2 SLP151 60001 T01060078 53022 $

More Conditions Fewer Conditions

10-Day Weather Forecast

Almanac

Astronomy

Oct. 26, 2014 Rise Set
Actual Time 7:42 AM PDT 6:07 PM PDT
Civil Twilight 7:11 AM PDT 6:37 PM PDT
Nautical Twilight 6:37 AM PDT 7:12 PM PDT
Astronomical Twilight 6:03 AM PDT 7:46 PM PDT
Moon 10:30 AM PDT 8:18 PM PDT
Length of Visible Light 11h 26m
Length of Day
10h 25m
Tomorrow will be 2m 55s shorter.
Waxing Crescent, 7% of the Moon is Illuminated
Today
Waxing Crescent
Oct 30
First Quarter
Nov 6
Full
Nov 14
Last Quarter
Nov 22
New

Today's Extremes

State Highs State Lows

Community

WunderPhotos

Upload Photos

1,765,130 photos uploaded!

Nearby

Snow Depth

Station Depth Elevation
Seine Creek 0 in 2000 ft
Saddle Mountain 1 in 3250 ft
North Fork 0 in 3120 ft
Peavine Ridge 0 in 3500 ft
Little Meadows 0 in 4000 ft

Earthquake Activity

City Distance Mag. Time & Date
No recent earthquake activity has been reported nearby.
Minimum magnitude displayed is 2.5.

Coastal Water Temperatures

Place Temperature
No Stations Reporting

Nearby Weather Stations